sensor_id;sensor_type;location;lat;lon;timestamp;temperature;humidity
7194;DHT22;3638;48.820;9.244;2023-04-15T00:01:57;5.50;99.90
7194;DHT22;3638;48.820;9.244;2023-04-15T00:06:53;5.60;99.90
7194;DHT22;3638;48.820;9.244;2023-04-15T00:09:20;5.50;99.90
7194;DHT22;3638;48.820;9.244;2023-04-15T00:11:49;5.60;99.90
7194;DHT22;3638;48.820;9.244;2023-04-15T00:14:17;5.60;99.90
7194;DHT22;3638;48.820;9.244;2023-04-15T00:16:45;5.60;99.90
7194;DHT22;3638;48.820;9.244;2023-04-15T00:19:14;5.60;99.90
7194;DHT22;3638;48.820;9.244;2023-04-15T00:21:41;5.60;99.90
7194;DHT22;3638;48.820;9.244;2023-04-15T00:24:11;5.50;99.90
7194;DHT22;3638;48.820;9.244;2023-04-15T00:26:37;5.20;99.90
7194;DHT22;3638;48.820;9.244;2023-04-15T00:29:04;5.30;99.90
7194;DHT22;3638;48.820;9.244;2023-04-15T00:31:31;5.30;99.90
7194;DHT22;3638;48.820;9.244;2023-04-15T00:33:59;5.30;99.90
7194;DHT22;3638;48.820;9.244;2023-04-15T00:36:27;5.20;99.90
7194;DHT22;3638;48.820;9.244;2023-04-15T00:38:54;5.20;99.90
7194;DHT22;3638;48.820;9.244;2023-04-15T00:41:20;5.20;99.90
7194;DHT22;3638;48.820;9.244;2023-04-15T00:43:48;5.10;99.90
7194;DHT22;3638;48.820;9.244;2023-04-15T00:46:16;5.10;99.90
7194;DHT22;3638;48.820;9.244;2023-04-15T00:48:45;5.00;99.90
7194;DHT22;3638;48.820;9.244;2023-04-15T00:51:14;5.00;99.90
7194;DHT22;3638;48.820;9.244;2023-04-15T00:53:41;4.80;99.90
7194;DHT22;3638;48.820;9.244;2023-04-15T00:56:08;4.80;99.90
7194;DHT22;3638;48.820;9.244;2023-04-15T00:58:35;4.80;99.90
7194;DHT22;3638;48.820;9.244;2023-04-15T01:01:03;4.90;99.90
7194;DHT22;3638;48.820;9.244;2023-04-15T01:03:30;4.80;99.90
7194;DHT22;3638;48.820;9.244;2023-04-15T01:05:56;4.70;99.90
7194;DHT22;3638;48.820;9.244;2023-04-15T01:08:27;4.80;99.90
7194;DHT22;3638;48.820;9.244;2023-04-15T01:11:01;4.80;99.90
7194;DHT22;3638;48.820;9.244;2023-04-15T01:13:30;4.70;99.90
7194;DHT22;3638;48.820;9.244;2023-04-15T01:15:59;4.80;99.90
7194;DHT22;3638;48.820;9.244;2023-04-15T01:18:27;4.80;99.90
7194;DHT22;3638;48.820;9.244;2023-04-15T01:20:56;4.70;99.90
7194;DHT22;3638;48.820;9.244;2023-04-15T01:23:24;4.70;99.90
7194;DHT22;3638;48.820;9.244;2023-04-15T01:25:53;4.70;99.90
7194;DHT22;3638;48.820;9.244;2023-04-15T01:28:20;4.60;99.90
7194;DHT22;3638;48.820;9.244;2023-04-15T01:30:47;4.60;99.90
7194;DHT22;3638;48.820;9.244;2023-04-15T01:35:42;4.60;99.90
7194;DHT22;3638;48.820;9.244;2023-04-15T01:38:13;4.60;99.90
7194;DHT22;3638;48.820;9.244;2023-04-15T01:40:40;4.60;99.90
7194;DHT22;3638;48.820;9.244;2023-04-15T01:43:08;4.60;99.90
7194;DHT22;3638;48.820;9.244;2023-04-15T01:45:35;4.50;99.90
7194;DHT22;3638;48.820;9.244;2023-04-15T01:48:02;4.40;99.90
7194;DHT22;3638;48.820;9.244;2023-04-15T01:50:29;4.30;99.90
7194;DHT22;3638;48.820;9.244;2023-04-15T01:52:56;4.30;99.90
7194;DHT22;3638;48.820;9.244;2023-04-15T01:55:22;4.30;99.90
7194;DHT22;3638;48.820;9.244;2023-04-15T01:57:49;4.30;99.90
7194;DHT22;3638;48.820;9.244;2023-04-15T02:00:18;4.40;99.90
7194;DHT22;3638;48.820;9.244;2023-04-15T02:02:45;4.40;99.90
7194;DHT22;3638;48.820;9.244;2023-04-15T02:05:11;4.40;99.90
7194;DHT22;3638;48.820;9.244;2023-04-15T02:07:39;4.40;99.90
7194;DHT22;3638;48.820;9.244;2023-04-15T02:10:06;4.50;99.90
7194;DHT22;3638;48.820;9.244;2023-04-15T02:12:33;4.40;99.90
7194;DHT22;3638;48.820;9.244;2023-04-15T02:15:00;4.40;99.90
7194;DHT22;3638;48.820;9.244;2023-04-15T02:17:28;4.40;99.90
7194;DHT22;3638;48.820;9.244;2023-04-15T02:19:56;4.40;99.90
7194;DHT22;3638;48.820;9.244;2023-04-15T02:22:22;4.40;99.90
7194;DHT22;3638;48.820;9.244;2023-04-15T02:24:49;4.40;99.90
7194;DHT22;3638;48.820;9.244;2023-04-15T02:27:16;4.50;99.90
7194;DHT22;3638;48.820;9.244;2023-04-15T02:29:44;4.50;99.90
7194;DHT22;3638;48.820;9.244;2023-04-15T02:32:11;4.50;99.90
7194;DHT22;3638;48.820;9.244;2023-04-15T02:34:40;4.50;99.90
7194;DHT22;3638;48.820;9.244;2023-04-15T02:37:07;4.50;99.90
7194;DHT22;3638;48.820;9.244;2023-04-15T02:39:34;4.50;99.90
7194;DHT22;3638;48.820;9.244;2023-04-15T02:42:01;4.50;99.90
7194;DHT22;3638;48.820;9.244;2023-04-15T02:44:29;4.60;99.90
7194;DHT22;3638;48.820;9.244;2023-04-15T02:46:57;4.50;99.90
7194;DHT22;3638;48.820;9.244;2023-04-15T02:49:24;4.50;99.90
7194;DHT22;3638;48.820;9.244;2023-04-15T02:51:55;4.50;99.90
7194;DHT22;3638;48.820;9.244;2023-04-15T02:54:23;4.50;99.90
7194;DHT22;3638;48.820;9.244;2023-04-15T02:56:53;4.50;99.90
7194;DHT22;3638;48.820;9.244;2023-04-15T02:59:20;4.60;99.90
7194;DHT22;3638;48.820;9.244;2023-04-15T03:01:47;4.60;99.90
7194;DHT22;3638;48.820;9.244;2023-04-15T03:04:14;4.60;99.90
7194;DHT22;3638;48.820;9.244;2023-04-15T03:06:41;4.60;99.90
7194;DHT22;3638;48.820;9.244;2023-04-15T03:11:37;4.70;99.90
7194;DHT22;3638;48.820;9.244;2023-04-15T03:14:05;4.70;99.90
7194;DHT22;3638;48.820;9.244;2023-04-15T03:16:32;4.60;99.90
7194;DHT22;3638;48.820;9.244;2023-04-15T03:18:59;4.50;99.90
7194;DHT22;3638;48.820;9.244;2023-04-15T03:21:26;4.40;99.90
7194;DHT22;3638;48.820;9.244;2023-04-15T03:23:53;4.30;99.90
7194;DHT22;3638;48.820;9.244;2023-04-15T03:26:25;4.40;99.90
7194;DHT22;3638;48.820;9.244;2023-04-15T03:28:53;4.50;99.90
7194;DHT22;3638;48.820;9.244;2023-04-15T03:31:20;4.50;99.90
7194;DHT22;3638;48.820;9.244;2023-04-15T03:33:47;4.60;99.90
7194;DHT22;3638;48.820;9.244;2023-04-15T03:36:14;4.60;99.90
7194;DHT22;3638;48.820;9.244;2023-04-15T03:38:42;4.60;99.90
7194;DHT22;3638;48.820;9.244;2023-04-15T03:41:09;4.50;99.90
7194;DHT22;3638;48.820;9.244;2023-04-15T03:43:37;4.60;99.90
7194;DHT22;3638;48.820;9.244;2023-04-15T03:46:04;4.60;99.90
7194;DHT22;3638;48.820;9.244;2023-04-15T03:48:31;4.60;99.90
7194;DHT22;3638;48.820;9.244;2023-04-15T03:50:57;4.60;99.90
7194;DHT22;3638;48.820;9.244;2023-04-15T03:53:24;4.50;99.90
7194;DHT22;3638;48.820;9.244;2023-04-15T03:55:51;4.50;99.90
7194;DHT22;3638;48.820;9.244;2023-04-15T03:58:18;4.50;99.90
7194;DHT22;3638;48.820;9.244;2023-04-15T04:00:46;4.50;99.90
7194;DHT22;3638;48.820;9.244;2023-04-15T04:03:13;4.60;99.90
7194;DHT22;3638;48.820;9.244;2023-04-15T04:05:40;4.60;99.90
7194;DHT22;3638;48.820;9.244;2023-04-15T04:08:08;4.60;99.90
7194;DHT22;3638;48.820;9.244;2023-04-15T04:10:38;4.60;99.90
7194;DHT22;3638;48.820;9.244;2023-04-15T04:13:05;4.50;99.90
7194;DHT22;3638;48.820;9.244;2023-04-15T04:15:32;4.40;99.90
7194;DHT22;3638;48.820;9.244;2023-04-15T04:18:00;4.30;99.90
7194;DHT22;3638;48.820;9.244;2023-04-15T04:20:28;4.40;99.90
7194;DHT22;3638;48.820;9.244;2023-04-15T04:22:56;4.50;99.90
7194;DHT22;3638;48.820;9.244;2023-04-15T04:25:23;4.40;99.90
7194;DHT22;3638;48.820;9.244;2023-04-15T04:27:50;4.40;99.90
7194;DHT22;3638;48.820;9.244;2023-04-15T04:30:17;4.30;99.90
7194;DHT22;3638;48.820;9.244;2023-04-15T04:32:44;4.30;99.90
7194;DHT22;3638;48.820;9.244;2023-04-15T04:35:12;4.20;99.90
7194;DHT22;3638;48.820;9.244;2023-04-15T04:37:39;4.10;99.90
7194;DHT22;3638;48.820;9.244;2023-04-15T04:40:07;4.10;99.90
7194;DHT22;3638;48.820;9.244;2023-04-15T04:42:35;4.10;99.90
7194;DHT22;3638;48.820;9.244;2023-04-15T04:45:01;4.10;99.90
7194;DHT22;3638;48.820;9.244;2023-04-15T04:47:28;4.10;99.90
7194;DHT22;3638;48.820;9.244;2023-04-15T04:49:55;4.10;99.90
7194;DHT22;3638;48.820;9.244;2023-04-15T04:52:23;4.10;99.90
7194;DHT22;3638;48.820;9.244;2023-04-15T04:54:50;4.20;99.90
7194;DHT22;3638;48.820;9.244;2023-04-15T04:57:17;4.20;99.90
7194;DHT22;3638;48.820;9.244;2023-04-15T04:59:44;4.20;99.90
7194;DHT22;3638;48.820;9.244;2023-04-15T05:02:11;4.20;99.90
7194;DHT22;3638;48.820;9.244;2023-04-15T05:04:37;4.20;99.90
7194;DHT22;3638;48.820;9.244;2023-04-15T05:07:06;4.20;99.90
7194;DHT22;3638;48.820;9.244;2023-04-15T05:09:34;4.20;99.90
7194;DHT22;3638;48.820;9.244;2023-04-15T05:12:01;4.20;99.90
7194;DHT22;3638;48.820;9.244;2023-04-15T05:14:29;4.20;99.90
7194;DHT22;3638;48.820;9.244;2023-04-15T05:16:56;4.20;99.90
7194;DHT22;3638;48.820;9.244;2023-04-15T05:19:23;4.20;99.90
7194;DHT22;3638;48.820;9.244;2023-04-15T05:21:50;4.20;99.90
7194;DHT22;3638;48.820;9.244;2023-04-15T05:24:17;4.20;99.90
7194;DHT22;3638;48.820;9.244;2023-04-15T05:26:45;4.20;99.90
7194;DHT22;3638;48.820;9.244;2023-04-15T05:29:12;4.30;99.90
7194;DHT22;3638;48.820;9.244;2023-04-15T05:31:38;4.30;99.90
7194;DHT22;3638;48.820;9.244;2023-04-15T05:34:05;4.30;99.90
7194;DHT22;3638;48.820;9.244;2023-04-15T05:36:32;4.30;99.90
7194;DHT22;3638;48.820;9.244;2023-04-15T05:38:59;4.40;99.90
7194;DHT22;3638;48.820;9.244;2023-04-15T05:41:26;4.40;99.90
7194;DHT22;3638;48.820;9.244;2023-04-15T05:43:54;4.50;99.90
7194;DHT22;3638;48.820;9.244;2023-04-15T05:46:21;4.60;99.90
7194;DHT22;3638;48.820;9.244;2023-04-15T05:48:48;4.70;99.90
7194;DHT22;3638;48.820;9.244;2023-04-15T05:51:15;4.90;99.90
7194;DHT22;3638;48.820;9.244;2023-04-15T05:53:41;5.00;99.90
7194;DHT22;3638;48.820;9.244;2023-04-15T05:56:10;5.30;99.90
7194;DHT22;3638;48.820;9.244;2023-04-15T05:58:37;5.50;99.90
7194;DHT22;3638;48.820;9.244;2023-04-15T06:01:05;5.80;99.90
7194;DHT22;3638;48.820;9.244;2023-04-15T06:03:32;6.10;99.90
7194;DHT22;3638;48.820;9.244;2023-04-15T06:05:58;6.50;99.90
7194;DHT22;3638;48.820;9.244;2023-04-15T06:08:25;6.80;99.90
7194;DHT22;3638;48.820;9.244;2023-04-15T06:10:53;7.20;99.90
7194;DHT22;3638;48.820;9.244;2023-04-15T06:13:20;7.90;99.90
7194;DHT22;3638;48.820;9.244;2023-04-15T06:15:47;8.30;99.90
7194;DHT22;3638;48.820;9.244;2023-04-15T06:18:15;8.80;99.90
7194;DHT22;3638;48.820;9.244;2023-04-15T06:20:42;9.20;99.90
7194;DHT22;3638;48.820;9.244;2023-04-15T06:23:09;9.50;99.90
7194;DHT22;3638;48.820;9.244;2023-04-15T06:25:35;9.90;99.90
7194;DHT22;3638;48.820;9.244;2023-04-15T06:28:03;10.30;99.90
7194;DHT22;3638;48.820;9.244;2023-04-15T06:30:30;10.90;99.90
7194;DHT22;3638;48.820;9.244;2023-04-15T06:32:57;10.90;99.90
7194;DHT22;3638;48.820;9.244;2023-04-15T06:35:25;10.40;99.90
7194;DHT22;3638;48.820;9.244;2023-04-15T06:37:53;10.70;99.90
7194;DHT22;3638;48.820;9.244;2023-04-15T06:40:19;13.00;99.90
7194;DHT22;3638;48.820;9.244;2023-04-15T06:42:46;10.60;99.90
7194;DHT22;3638;48.820;9.244;2023-04-15T06:45:13;10.50;99.90
7194;DHT22;3638;48.820;9.244;2023-04-15T06:47:40;10.60;99.90
7194;DHT22;3638;48.820;9.244;2023-04-15T06:50:08;10.20;99.90
7194;DHT22;3638;48.820;9.244;2023-04-15T06:52:37;9.90;99.90
7194;DHT22;3638;48.820;9.244;2023-04-15T06:55:04;10.20;99.90
7194;DHT22;3638;48.820;9.244;2023-04-15T06:57:32;10.80;99.90
7194;DHT22;3638;48.820;9.244;2023-04-15T06:59:59;10.70;99.90
7194;DHT22;3638;48.820;9.244;2023-04-15T07:02:26;10.50;99.90
7194;DHT22;3638;48.820;9.244;2023-04-15T07:04:53;10.00;99.90
7194;DHT22;3638;48.820;9.244;2023-04-15T07:07:19;10.30;99.90
7194;DHT22;3638;48.820;9.244;2023-04-15T07:09:48;10.30;99.90
7194;DHT22;3638;48.820;9.244;2023-04-15T07:12:14;10.30;99.90
7194;DHT22;3638;48.820;9.244;2023-04-15T07:14:41;10.00;99.90
7194;DHT22;3638;48.820;9.244;2023-04-15T07:17:09;9.50;99.90
7194;DHT22;3638;48.820;9.244;2023-04-15T07:19:36;9.30;99.90
7194;DHT22;3638;48.820;9.244;2023-04-15T07:22:03;9.20;99.90
7194;DHT22;3638;48.820;9.244;2023-04-15T07:24:30;9.40;99.90
7194;DHT22;3638;48.820;9.244;2023-04-15T07:26:58;9.50;99.90
7194;DHT22;3638;48.820;9.244;2023-04-15T07:29:26;9.80;99.90
7194;DHT22;3638;48.820;9.244;2023-04-15T07:31:53;9.90;99.90
7194;DHT22;3638;48.820;9.244;2023-04-15T07:34:21;10.00;99.90
7194;DHT22;3638;48.820;9.244;2023-04-15T07:36:49;10.10;99.90
7194;DHT22;3638;48.820;9.244;2023-04-15T07:39:16;11.20;99.90
7194;DHT22;3638;48.820;9.244;2023-04-15T07:41:43;11.20;99.90
7194;DHT22;3638;48.820;9.244;2023-04-15T07:44:12;11.40;99.90
7194;DHT22;3638;48.820;9.244;2023-04-15T07:46:39;11.90;99.90
7194;DHT22;3638;48.820;9.244;2023-04-15T07:49:06;12.00;99.90
7194;DHT22;3638;48.820;9.244;2023-04-15T07:51:33;12.30;99.90
7194;DHT22;3638;48.820;9.244;2023-04-15T07:54:00;12.40;99.90
7194;DHT22;3638;48.820;9.244;2023-04-15T07:56:28;12.50;99.90
7194;DHT22;3638;48.820;9.244;2023-04-15T07:58:55;12.60;99.90
7194;DHT22;3638;48.820;9.244;2023-04-15T08:01:23;12.50;99.90
7194;DHT22;3638;48.820;9.244;2023-04-15T08:03:51;12.80;99.90
7194;DHT22;3638;48.820;9.244;2023-04-15T08:06:18;13.40;99.90
7194;DHT22;3638;48.820;9.244;2023-04-15T08:08:44;13.30;99.90
7194;DHT22;3638;48.820;9.244;2023-04-15T08:11:12;13.70;99.90
7194;DHT22;3638;48.820;9.244;2023-04-15T08:13:39;13.70;99.90
7194;DHT22;3638;48.820;9.244;2023-04-15T08:16:17;13.70;98.90
7194;DHT22;3638;48.820;9.244;2023-04-15T08:18:46;14.00;99.90
7194;DHT22;3638;48.820;9.244;2023-04-15T08:21:14;13.80;99.90
7194;DHT22;3638;48.820;9.244;2023-04-15T08:23:42;14.50;99.10
7194;DHT22;3638;48.820;9.244;2023-04-15T08:26:09;15.10;98.90
7194;DHT22;3638;48.820;9.244;2023-04-15T08:28:37;15.30;97.60
7194;DHT22;3638;48.820;9.244;2023-04-15T08:31:05;15.20;96.40
7194;DHT22;3638;48.820;9.244;2023-04-15T08:33:32;15.10;97.50
7194;DHT22;3638;48.820;9.244;2023-04-15T08:36:00;15.30;96.50
7194;DHT22;3638;48.820;9.244;2023-04-15T08:38:27;15.40;96.30
7194;DHT22;3638;48.820;9.244;2023-04-15T08:40:55;15.20;95.80
7194;DHT22;3638;48.820;9.244;2023-04-15T08:43:27;15.20;95.80
7194;DHT22;3638;48.820;9.244;2023-04-15T08:45:55;15.20;95.50
7194;DHT22;3638;48.820;9.244;2023-04-15T08:48:27;15.60;94.70
7194;DHT22;3638;48.820;9.244;2023-04-15T08:50:56;15.70;95.10
7194;DHT22;3638;48.820;9.244;2023-04-15T08:53:25;15.70;94.60
7194;DHT22;3638;48.820;9.244;2023-04-15T08:55:54;15.40;94.50
7194;DHT22;3638;48.820;9.244;2023-04-15T08:58:23;15.30;95.00
7194;DHT22;3638;48.820;9.244;2023-04-15T09:00:50;15.40;95.10
7194;DHT22;3638;48.820;9.244;2023-04-15T09:03:17;15.50;94.60
7194;DHT22;3638;48.820;9.244;2023-04-15T09:05:46;15.40;94.40
7194;DHT22;3638;48.820;9.244;2023-04-15T09:08:14;16.00;94.30
7194;DHT22;3638;48.820;9.244;2023-04-15T09:10:42;16.00;94.20
7194;DHT22;3638;48.820;9.244;2023-04-15T09:13:09;15.80;93.20
7194;DHT22;3638;48.820;9.244;2023-04-15T09:15:37;15.50;94.50
7194;DHT22;3638;48.820;9.244;2023-04-15T09:18:04;15.30;94.20
7194;DHT22;3638;48.820;9.244;2023-04-15T09:20:38;15.20;94.50
7194;DHT22;3638;48.820;9.244;2023-04-15T09:23:11;14.90;95.00
7194;DHT22;3638;48.820;9.244;2023-04-15T09:25:39;15.30;96.00
7194;DHT22;3638;48.820;9.244;2023-04-15T09:28:08;15.20;96.10
7194;DHT22;3638;48.820;9.244;2023-04-15T09:30:35;15.10;96.30
7194;DHT22;3638;48.820;9.244;2023-04-15T09:33:03;15.10;96.90
7194;DHT22;3638;48.820;9.244;2023-04-15T09:35:33;15.10;97.00
7194;DHT22;3638;48.820;9.244;2023-04-15T09:38:05;15.00;95.30
7194;DHT22;3638;48.820;9.244;2023-04-15T09:40:35;14.60;97.40
7194;DHT22;3638;48.820;9.244;2023-04-15T09:43:03;14.60;96.50
7194;DHT22;3638;48.820;9.244;2023-04-15T09:45:33;14.60;96.40
7194;DHT22;3638;48.820;9.244;2023-04-15T09:48:15;14.50;96.70
7194;DHT22;3638;48.820;9.244;2023-04-15T09:50:43;14.30;95.70
7194;DHT22;3638;48.820;9.244;2023-04-15T09:53:14;14.20;96.80
7194;DHT22;3638;48.820;9.244;2023-04-15T09:55:43;14.00;96.80
7194;DHT22;3638;48.820;9.244;2023-04-15T09:58:17;14.50;97.10
7194;DHT22;3638;48.820;9.244;2023-04-15T10:00:47;14.70;96.80
7194;DHT22;3638;48.820;9.244;2023-04-15T10:03:18;14.40;97.30
7194;DHT22;3638;48.820;9.244;2023-04-15T10:05:47;14.30;96.60
7194;DHT22;3638;48.820;9.244;2023-04-15T10:08:16;14.00;97.60
7194;DHT22;3638;48.820;9.244;2023-04-15T10:10:44;13.80;97.10
7194;DHT22;3638;48.820;9.244;2023-04-15T10:13:12;13.70;98.30
7194;DHT22;3638;48.820;9.244;2023-04-15T10:15:43;13.90;97.00
7194;DHT22;3638;48.820;9.244;2023-04-15T10:18:14;14.10;98.60
7194;DHT22;3638;48.820;9.244;2023-04-15T10:20:43;14.50;97.10
7194;DHT22;3638;48.820;9.244;2023-04-15T10:23:10;14.90;96.70
7194;DHT22;3638;48.820;9.244;2023-04-15T10:25:38;14.90;95.90
7194;DHT22;3638;48.820;9.244;2023-04-15T10:28:05;14.50;96.80
7194;DHT22;3638;48.820;9.244;2023-04-15T10:30:33;14.60;95.70
7194;DHT22;3638;48.820;9.244;2023-04-15T10:33:00;14.50;96.00
7194;DHT22;3638;48.820;9.244;2023-04-15T10:35:30;14.40;96.30
7194;DHT22;3638;48.820;9.244;2023-04-15T10:37:58;14.40;95.10
7194;DHT22;3638;48.820;9.244;2023-04-15T10:40:29;14.30;95.00
7194;DHT22;3638;48.820;9.244;2023-04-15T10:42:58;14.30;95.20
7194;DHT22;3638;48.820;9.244;2023-04-15T10:45:27;14.20;94.60
7194;DHT22;3638;48.820;9.244;2023-04-15T10:47:57;14.30;95.10
7194;DHT22;3638;48.820;9.244;2023-04-15T10:50:27;14.50;95.20
7194;DHT22;3638;48.820;9.244;2023-04-15T10:52:57;14.20;95.70
7194;DHT22;3638;48.820;9.244;2023-04-15T10:55:26;14.40;96.10
7194;DHT22;3638;48.820;9.244;2023-04-15T10:57:58;14.40;95.10
7194;DHT22;3638;48.820;9.244;2023-04-15T11:00:28;13.90;95.30
7194;DHT22;3638;48.820;9.244;2023-04-15T11:02:57;14.40;94.80
7194;DHT22;3638;48.820;9.244;2023-04-15T11:05:49;14.30;95.90
7194;DHT22;3638;48.820;9.244;2023-04-15T11:08:18;14.40;95.70
7194;DHT22;3638;48.820;9.244;2023-04-15T11:10:54;14.50;95.30
7194;DHT22;3638;48.820;9.244;2023-04-15T11:13:26;14.80;94.50
7194;DHT22;3638;48.820;9.244;2023-04-15T11:15:58;15.00;94.60
7194;DHT22;3638;48.820;9.244;2023-04-15T11:18:32;15.30;94.20
7194;DHT22;3638;48.820;9.244;2023-04-15T11:21:01;15.30;93.50
7194;DHT22;3638;48.820;9.244;2023-04-15T11:23:35;15.30;92.50
7194;DHT22;3638;48.820;9.244;2023-04-15T11:26:05;15.40;93.70
7194;DHT22;3638;48.820;9.244;2023-04-15T11:28:34;15.40;93.30
7194;DHT22;3638;48.820;9.244;2023-04-15T11:31:06;15.10;93.90
7194;DHT22;3638;48.820;9.244;2023-04-15T11:33:36;15.30;94.70
7194;DHT22;3638;48.820;9.244;2023-04-15T11:36:05;15.30;94.90
7194;DHT22;3638;48.820;9.244;2023-04-15T11:38:34;15.10;95.00
7194;DHT22;3638;48.820;9.244;2023-04-15T11:41:02;14.60;95.50
7194;DHT22;3638;48.820;9.244;2023-04-15T11:43:31;14.00;97.70
7194;DHT22;3638;48.820;9.244;2023-04-15T11:46:01;13.70;99.00
7194;DHT22;3638;48.820;9.244;2023-04-15T11:48:31;13.60;99.90
7194;DHT22;3638;48.820;9.244;2023-04-15T11:51:00;13.60;99.60
7194;DHT22;3638;48.820;9.244;2023-04-15T11:53:42;13.70;97.20
7194;DHT22;3638;48.820;9.244;2023-04-15T11:56:15;13.90;97.60
7194;DHT22;3638;48.820;9.244;2023-04-15T11:58:43;14.20;96.10
7194;DHT22;3638;48.820;9.244;2023-04-15T12:01:11;14.60;95.50
7194;DHT22;3638;48.820;9.244;2023-04-15T12:03:39;14.70;95.60
7194;DHT22;3638;48.820;9.244;2023-04-15T12:06:14;14.90;94.70
7194;DHT22;3638;48.820;9.244;2023-04-15T12:08:56;14.80;94.70
7194;DHT22;3638;48.820;9.244;2023-04-15T12:11:36;14.20;95.70
7194;DHT22;3638;48.820;9.244;2023-04-15T12:14:06;13.90;94.90
7194;DHT22;3638;48.820;9.244;2023-04-15T12:16:35;13.80;95.50
7194;DHT22;3638;48.820;9.244;2023-04-15T12:19:06;13.50;95.40
7194;DHT22;3638;48.820;9.244;2023-04-15T12:21:37;13.40;95.10
7194;DHT22;3638;48.820;9.244;2023-04-15T12:24:07;13.40;95.50
7194;DHT22;3638;48.820;9.244;2023-04-15T12:26:37;13.50;97.20
7194;DHT22;3638;48.820;9.244;2023-04-15T12:31:47;12.70;98.70
7194;DHT22;3638;48.820;9.244;2023-04-15T12:34:16;11.90;99.90
7194;DHT22;3638;48.820;9.244;2023-04-15T12:36:44;11.00;99.90
7194;DHT22;3638;48.820;9.244;2023-04-15T12:39:12;10.20;99.90
7194;DHT22;3638;48.820;9.244;2023-04-15T12:41:39;10.00;99.90
7194;DHT22;3638;48.820;9.244;2023-04-15T12:44:06;9.60;99.90
7194;DHT22;3638;48.820;9.244;2023-04-15T12:46:34;9.50;99.90
7194;DHT22;3638;48.820;9.244;2023-04-15T12:49:00;9.40;99.90
7194;DHT22;3638;48.820;9.244;2023-04-15T12:51:28;9.40;99.90
7194;DHT22;3638;48.820;9.244;2023-04-15T12:53:56;9.40;99.90
7194;DHT22;3638;48.820;9.244;2023-04-15T12:56:24;9.40;99.90
7194;DHT22;3638;48.820;9.244;2023-04-15T12:58:51;9.40;99.90
7194;DHT22;3638;48.820;9.244;2023-04-15T13:01:18;9.70;99.90
7194;DHT22;3638;48.820;9.244;2023-04-15T13:03:45;10.10;99.90
7194;DHT22;3638;48.820;9.244;2023-04-15T13:06:12;10.40;99.90
7194;DHT22;3638;48.820;9.244;2023-04-15T13:08:39;10.60;99.90
7194;DHT22;3638;48.820;9.244;2023-04-15T13:11:06;10.70;99.90
7194;DHT22;3638;48.820;9.244;2023-04-15T13:13:35;10.90;99.90
7194;DHT22;3638;48.820;9.244;2023-04-15T13:16:01;10.90;99.90
7194;DHT22;3638;48.820;9.244;2023-04-15T13:18:28;10.80;99.90
7194;DHT22;3638;48.820;9.244;2023-04-15T13:20:55;10.90;99.90
7194;DHT22;3638;48.820;9.244;2023-04-15T13:23:22;11.00;99.90
7194;DHT22;3638;48.820;9.244;2023-04-15T13:25:49;11.10;99.90
7194;DHT22;3638;48.820;9.244;2023-04-15T13:28:16;11.40;99.90
7194;DHT22;3638;48.820;9.244;2023-04-15T13:30:45;11.70;99.90
7194;DHT22;3638;48.820;9.244;2023-04-15T13:33:16;11.80;99.90
7194;DHT22;3638;48.820;9.244;2023-04-15T13:35:43;11.90;99.90
7194;DHT22;3638;48.820;9.244;2023-04-15T13:38:10;12.10;99.90
7194;DHT22;3638;48.820;9.244;2023-04-15T13:40:37;12.20;99.90
7194;DHT22;3638;48.820;9.244;2023-04-15T13:43:03;12.50;99.90
7194;DHT22;3638;48.820;9.244;2023-04-15T13:45:30;12.40;99.90
7194;DHT22;3638;48.820;9.244;2023-04-15T13:47:58;12.30;99.90
7194;DHT22;3638;48.820;9.244;2023-04-15T13:50:26;12.30;99.90
7194;DHT22;3638;48.820;9.244;2023-04-15T13:52:53;12.10;99.90
7194;DHT22;3638;48.820;9.244;2023-04-15T13:55:20;12.10;99.50
7194;DHT22;3638;48.820;9.244;2023-04-15T13:57:47;12.00;99.90
7194;DHT22;3638;48.820;9.244;2023-04-15T14:00:15;12.10;97.00
7194;DHT22;3638;48.820;9.244;2023-04-15T14:02:42;12.10;98.70
7194;DHT22;3638;48.820;9.244;2023-04-15T14:05:10;12.30;97.80
7194;DHT22;3638;48.820;9.244;2023-04-15T14:07:37;12.50;99.10
7194;DHT22;3638;48.820;9.244;2023-04-15T14:10:05;12.50;97.60
7194;DHT22;3638;48.820;9.244;2023-04-15T14:12:32;12.50;97.90
7194;DHT22;3638;48.820;9.244;2023-04-15T14:14:59;12.60;97.40
7194;DHT22;3638;48.820;9.244;2023-04-15T14:17:26;12.70;97.50
7194;DHT22;3638;48.820;9.244;2023-04-15T14:19:53;12.60;97.40
7194;DHT22;3638;48.820;9.244;2023-04-15T14:22:21;12.50;98.00
7194;DHT22;3638;48.820;9.244;2023-04-15T14:24:48;12.40;98.50
7194;DHT22;3638;48.820;9.244;2023-04-15T14:27:17;12.10;99.80
7194;DHT22;3638;48.820;9.244;2023-04-15T14:29:44;12.20;98.70
7194;DHT22;3638;48.820;9.244;2023-04-15T14:32:11;12.10;99.60
7194;DHT22;3638;48.820;9.244;2023-04-15T14:34:38;12.10;99.60
7194;DHT22;3638;48.820;9.244;2023-04-15T14:37:05;12.20;99.60
7194;DHT22;3638;48.820;9.244;2023-04-15T14:39:33;12.10;99.80
7194;DHT22;3638;48.820;9.244;2023-04-15T14:42:00;12.10;98.60
7194;DHT22;3638;48.820;9.244;2023-04-15T14:44:27;12.20;99.70
7194;DHT22;3638;48.820;9.244;2023-04-15T14:46:54;12.30;97.70
7194;DHT22;3638;48.820;9.244;2023-04-15T14:49:21;12.10;96.90
7194;DHT22;3638;48.820;9.244;2023-04-15T14:51:48;12.10;96.90
7194;DHT22;3638;48.820;9.244;2023-04-15T14:54:15;11.90;96.30
7194;DHT22;3638;48.820;9.244;2023-04-15T14:56:43;11.90;97.00
7194;DHT22;3638;48.820;9.244;2023-04-15T14:59:10;11.80;96.80
7194;DHT22;3638;48.820;9.244;2023-04-15T15:01:37;11.80;97.10
7194;DHT22;3638;48.820;9.244;2023-04-15T15:04:03;11.90;97.60
7194;DHT22;3638;48.820;9.244;2023-04-15T15:06:30;11.90;97.80
7194;DHT22;3638;48.820;9.244;2023-04-15T15:08:57;11.80;97.70
7194;DHT22;3638;48.820;9.244;2023-04-15T15:11:25;11.80;98.40
7194;DHT22;3638;48.820;9.244;2023-04-15T15:13:54;11.80;98.30
7194;DHT22;3638;48.820;9.244;2023-04-15T15:16:21;11.60;99.10
7194;DHT22;3638;48.820;9.244;2023-04-15T15:18:49;11.70;99.90
7194;DHT22;3638;48.820;9.244;2023-04-15T15:21:16;11.50;99.50
7194;DHT22;3638;48.820;9.244;2023-04-15T15:23:43;11.50;99.90
7194;DHT22;3638;48.820;9.244;2023-04-15T15:26:12;11.40;99.90
7194;DHT22;3638;48.820;9.244;2023-04-15T15:28:39;11.30;99.90
7194;DHT22;3638;48.820;9.244;2023-04-15T15:31:07;11.30;99.90
7194;DHT22;3638;48.820;9.244;2023-04-15T15:33:34;11.00;99.90
7194;DHT22;3638;48.820;9.244;2023-04-15T15:36:02;10.90;99.90
7194;DHT22;3638;48.820;9.244;2023-04-15T15:38:29;10.80;99.90
7194;DHT22;3638;48.820;9.244;2023-04-15T15:40:56;10.70;99.90
7194;DHT22;3638;48.820;9.244;2023-04-15T15:43:23;10.70;99.90
7194;DHT22;3638;48.820;9.244;2023-04-15T15:45:50;10.80;99.90
7194;DHT22;3638;48.820;9.244;2023-04-15T15:48:21;10.90;99.90
7194;DHT22;3638;48.820;9.244;2023-04-15T15:50:48;11.00;99.90
7194;DHT22;3638;48.820;9.244;2023-04-15T15:53:15;11.10;99.90
7194;DHT22;3638;48.820;9.244;2023-04-15T15:55:45;11.20;99.90
7194;DHT22;3638;48.820;9.244;2023-04-15T15:58:12;11.40;99.90
7194;DHT22;3638;48.820;9.244;2023-04-15T16:00:39;11.20;99.90
7194;DHT22;3638;48.820;9.244;2023-04-15T16:03:07;11.20;99.90
7194;DHT22;3638;48.820;9.244;2023-04-15T16:05:38;10.80;99.90
7194;DHT22;3638;48.820;9.244;2023-04-15T16:08:05;10.40;99.90
7194;DHT22;3638;48.820;9.244;2023-04-15T16:10:32;10.20;99.90
7194;DHT22;3638;48.820;9.244;2023-04-15T16:12:58;9.90;99.90
7194;DHT22;3638;48.820;9.244;2023-04-15T16:15:26;9.80;99.90
7194;DHT22;3638;48.820;9.244;2023-04-15T16:17:53;9.70;99.90
7194;DHT22;3638;48.820;9.244;2023-04-15T16:20:20;9.60;99.90
7194;DHT22;3638;48.820;9.244;2023-04-15T16:22:48;9.60;99.90
7194;DHT22;3638;48.820;9.244;2023-04-15T16:25:16;9.60;99.90